MSC Bettina — HPFG — position and weather

sailwx.info

Track history (hours):
 
Tides and Currents Weather Stations Pressure Air Temp Water Temp Dewpoint Dewpoint Depression Visibility Wind Speed Wind Dir Waves Ship Positions

MSC Bettina

Last reported at 2014-Sep-18 21:24 UTC. Time now 2014-Sep-19 23:52 UTC.
Position N 24°45' E 119°46'.

Length 366 m; draft 12.8 m.

Type: Ship (hazmat cat A). MMSI: 352361000.

Date/timePositionNaut miles runAvg speedWind from/ knotsBaromVisibWave heightAir tempDewpointWater temp
2014-Sep-18 21:24N 24°45' E 119°46'2318.5
2014-Sep-18 20:09N 24°31' E 119°27'1118.7
2014-Sep-18 19:33N 24°23' E 119°17'2018.5
2014-Sep-18 18:28N 24°10' E 119°01'2018.5
2014-Sep-18 17:25N 23°57' E 118°45'1618.5
2014-Sep-18 16:33N 23°46' E 118°32'1918.8
2014-Sep-18 15:32N 23°35' E 118°15'1919.0
2014-Sep-18 14:33N 23°23' E 117°60'3918.7
2014-Sep-18 12:27N 22°52' E 117°33'  
2014-Sep-15 02:12N 01°16' E 104°08'1016.3
2014-Sep-15 01:34N 01°14' E 103°58'10 9.9
2014-Sep-15 00:33N 01°12' E 103°48'5 4.6
2014-Sep-14 23:33N 01°16' E 103°46'0 0.0
2014-Sep-14 22:32N 01°16' E 103°46'0 0.0
2014-Sep-14 21:33N 01°16' E 103°46'0 0.0
2014-Sep-14 20:33N 01°16' E 103°46'0 0.0
2014-Sep-14 19:33N 01°16' E 103°46'0 0.0
2014-Sep-14 18:33N 01°16' E 103°46'0 0.0
2014-Sep-14 17:33N 01°16' E 103°46'0 0.0
2014-Sep-14 16:33N 01°16' E 103°46'0 0.0
2014-Sep-14 15:33N 01°16' E 103°46'0 0.0
2014-Sep-14 14:33N 01°16' E 103°46'0 0.0
2014-Sep-14 13:33N 01°16' E 103°46'0 0.0
2014-Sep-14 12:33N 01°16' E 103°46'0 0.0
2014-Sep-14 11:33N 01°16' E 103°46'0 0.0
2014-Sep-14 10:33N 01°16' E 103°46'0 0.0
2014-Sep-14 09:33N 01°16' E 103°46'0 0.0
2014-Sep-14 08:32N 01°16' E 103°46'0 0.0
2014-Sep-14 07:33N 01°16' E 103°46'0 0.0
2014-Sep-14 06:33N 01°16' E 103°46'0 0.0
2014-Sep-14 05:34N 01°16' E 103°46'0 0.0
2014-Sep-14 04:33N 01°16' E 103°46'0 0.0
2014-Sep-14 03:33N 01°16' E 103°46'0 0.0
2014-Sep-14 02:33N 01°16' E 103°46'0 0.0
2014-Sep-14 01:33N 01°16' E 103°46'0 0.0
2014-Sep-13 21:33N 01°16' E 103°46'0 0.0
2014-Sep-13 20:33N 01°16' E 103°46'0 0.0
2014-Sep-13 19:33N 01°16' E 103°46'0 0.0
2014-Sep-13 18:33N 01°16' E 103°46'0 0.0
2014-Sep-13 17:33N 01°16' E 103°46'0 0.0
2014-Sep-13 16:33N 01°16' E 103°46'0 0.0
2014-Sep-13 15:33N 01°16' E 103°46'0 0.0
2014-Sep-13 14:33N 01°16' E 103°46'0 0.0
2014-Sep-13 13:33N 01°16' E 103°46'0 0.0
2014-Sep-13 12:33N 01°16' E 103°46'0 0.0
2014-Sep-13 11:33N 01°16' E 103°46'1 0.7
2014-Sep-13 10:33N 01°16' E 103°46'5 5.0
2014-Sep-13 09:33N 01°13' E 103°42'7 7.4
2014-Sep-13 08:33N 01°11' E 103°35'8 7.7
2014-Sep-13 07:33N 01°10' E 103°27'  
Track history (hours):
 
Tides and Currents Weather Stations Pressure Air Temp Water Temp Dewpoint Dewpoint Depression Visibility Wind Speed Wind Dir Waves Ship Positions

MSC Bettina

Last reported at 2014-Sep-18 21:24 UTC. Time now 2014-Sep-19 23:52 UTC.
Position N 24°45' E 119°46'.

Length 366 m; draft 12.8 m.

Type: Ship (hazmat cat A). MMSI: 352361000.

Date/timePositionNaut miles runAvg speedWind from/ knotsBaromVisibWave heightAir tempDewpointWater temp
2014-Sep-18 21:24N 24°45' E 119°46'2318.5
2014-Sep-18 20:09N 24°31' E 119°27'1118.7
2014-Sep-18 19:33N 24°23' E 119°17'2018.5
2014-Sep-18 18:28N 24°10' E 119°01'2018.5
2014-Sep-18 17:25N 23°57' E 118°45'1618.5
2014-Sep-18 16:33N 23°46' E 118°32'1918.8
2014-Sep-18 15:32N 23°35' E 118°15'1919.0
2014-Sep-18 14:33N 23°23' E 117°60'3918.7
2014-Sep-18 12:27N 22°52' E 117°33'  
2014-Sep-15 02:12N 01°16' E 104°08'1016.3
2014-Sep-15 01:34N 01°14' E 103°58'10 9.9
2014-Sep-15 00:33N 01°12' E 103°48'5 4.6
2014-Sep-14 23:33N 01°16' E 103°46'0 0.0
2014-Sep-14 22:32N 01°16' E 103°46'0 0.0
2014-Sep-14 21:33N 01°16' E 103°46'0 0.0
2014-Sep-14 20:33N 01°16' E 103°46'0 0.0
2014-Sep-14 19:33N 01°16' E 103°46'0 0.0
2014-Sep-14 18:33N 01°16' E 103°46'0 0.0
2014-Sep-14 17:33N 01°16' E 103°46'0 0.0
2014-Sep-14 16:33N 01°16' E 103°46'0 0.0
2014-Sep-14 15:33N 01°16' E 103°46'0 0.0
2014-Sep-14 14:33N 01°16' E 103°46'0 0.0
2014-Sep-14 13:33N 01°16' E 103°46'0 0.0
2014-Sep-14 12:33N 01°16' E 103°46'0 0.0
2014-Sep-14 11:33N 01°16' E 103°46'0 0.0
2014-Sep-14 10:33N 01°16' E 103°46'0 0.0
2014-Sep-14 09:33N 01°16' E 103°46'0 0.0
2014-Sep-14 08:32N 01°16' E 103°46'0 0.0
2014-Sep-14 07:33N 01°16' E 103°46'0 0.0
2014-Sep-14 06:33N 01°16' E 103°46'0 0.0
2014-Sep-14 05:34N 01°16' E 103°46'0 0.0
2014-Sep-14 04:33N 01°16' E 103°46'0 0.0
2014-Sep-14 03:33N 01°16' E 103°46'0 0.0
2014-Sep-14 02:33N 01°16' E 103°46'0 0.0
2014-Sep-14 01:33N 01°16' E 103°46'0 0.0
2014-Sep-13 21:33N 01°16' E 103°46'0 0.0
2014-Sep-13 20:33N 01°16' E 103°46'0 0.0
2014-Sep-13 19:33N 01°16' E 103°46'0 0.0
2014-Sep-13 18:33N 01°16' E 103°46'0 0.0
2014-Sep-13 17:33N 01°16' E 103°46'0 0.0
2014-Sep-13 16:33N 01°16' E 103°46'0 0.0
2014-Sep-13 15:33N 01°16' E 103°46'0 0.0
2014-Sep-13 14:33N 01°16' E 103°46'0 0.0
2014-Sep-13 13:33N 01°16' E 103°46'0 0.0
2014-Sep-13 12:33N 01°16' E 103°46'0 0.0
2014-Sep-13 11:33N 01°16' E 103°46'1 0.7
2014-Sep-13 10:33N 01°16' E 103°46'5 5.0
2014-Sep-13 09:33N 01°13' E 103°42'7 7.4
2014-Sep-13 08:33N 01°11' E 103°35'8 7.7
2014-Sep-13 07:33N 01°10' E 103°27'  

Dump ship's entire track history